createdAt,value
2022-09-01T00:01:39.430Z,0.32
2022-09-01T00:04:08.917Z,0.00
2022-09-01T00:06:40.819Z,0.55
2022-09-01T00:09:09.771Z,0.10
2022-09-01T00:11:37.244Z,0.00
2022-09-01T00:14:06.938Z,0.20
2022-09-01T00:16:50.147Z,0.22
2022-09-01T00:19:19.803Z,0.17
2022-09-01T00:21:47.473Z,0.03
2022-09-01T00:24:16.331Z,0.08
2022-09-01T00:26:44.015Z,0.15
2022-09-01T00:29:11.271Z,0.10
2022-09-01T00:31:39.038Z,0.10
2022-09-01T00:34:06.778Z,0.30
2022-09-01T00:36:34.470Z,0.30
2022-09-01T00:39:02.101Z,0.22
2022-09-01T00:41:30.705Z,0.00
2022-09-01T00:43:59.531Z,0.00
2022-09-01T00:46:29.365Z,0.25
2022-09-01T00:49:04.118Z,0.10
2022-09-01T00:51:32.198Z,0.10
2022-09-01T00:54:00.167Z,0.00
2022-09-01T00:56:27.640Z,0.30
2022-09-01T00:58:55.442Z,0.10
2022-09-01T01:01:23.475Z,0.08
2022-09-01T01:03:50.913Z,0.00
2022-09-01T01:06:19.219Z,0.10
2022-09-01T01:09:00.220Z,0.10
2022-09-01T01:11:30.819Z,0.47
2022-09-01T01:14:16.094Z,0.10
2022-09-01T01:16:47.482Z,0.00
2022-09-01T01:19:40.904Z,0.30
2022-09-01T01:22:29.756Z,0.00
2022-09-01T01:24:57.337Z,0.20
2022-09-01T01:27:24.755Z,0.75
2022-09-01T01:29:53.543Z,0.20
2022-09-01T01:32:21.129Z,0.00
2022-09-01T01:34:48.810Z,0.25
2022-09-01T01:37:16.120Z,0.10
2022-09-01T01:39:44.424Z,0.03
2022-09-01T01:42:12.368Z,0.30
2022-09-01T01:44:40.850Z,0.17
2022-09-01T01:47:13.185Z,0.17
2022-09-01T01:49:43.722Z,0.20
2022-09-01T01:52:14.978Z,0.20
2022-09-01T01:54:43.748Z,0.10
2022-09-01T01:57:11.093Z,0.10
2022-09-01T01:59:40.915Z,0.10
2022-09-01T02:02:09.875Z,0.00
2022-09-01T02:04:37.139Z,0.00
2022-09-01T02:07:04.501Z,0.15
2022-09-01T02:09:31.866Z,0.00
2022-09-01T02:11:59.208Z,0.43
2022-09-01T02:14:26.833Z,0.08
2022-09-01T02:16:56.022Z,0.00
2022-09-01T02:19:23.489Z,0.00
2022-09-01T02:21:55.861Z,0.52
2022-09-01T02:24:25.431Z,0.00
2022-09-01T02:26:52.780Z,0.85
2022-09-01T02:29:22.033Z,0.15
2022-09-01T02:31:52.058Z,0.05
2022-09-01T02:34:20.185Z,0.10
2022-09-01T02:36:48.941Z,0.10
2022-09-01T02:39:17.132Z,0.32
2022-09-01T02:41:44.451Z,0.20
2022-09-01T02:44:11.904Z,0.00
2022-09-01T02:46:43.175Z,0.00
2022-09-01T02:49:17.706Z,0.10
2022-09-01T02:51:46.183Z,0.38
2022-09-01T02:54:17.581Z,0.17
2022-09-01T02:56:48.179Z,0.08
2022-09-01T02:59:16.248Z,0.45
2022-09-01T03:01:47.608Z,0.10
2022-09-01T03:04:15.658Z,0.17
2022-09-01T03:06:43.222Z,0.43
2022-09-01T03:09:12.082Z,0.20
2022-09-01T03:11:41.273Z,0.00
2022-09-01T03:14:09.362Z,0.10
2022-09-01T03:16:39.230Z,0.20
2022-09-01T03:19:09.103Z,0.10
2022-09-01T03:21:37.820Z,0.22
2022-09-01T03:24:05.236Z,0.10
2022-09-01T03:26:32.754Z,0.10
2022-09-01T03:28:59.948Z,0.30
2022-09-01T03:31:31.008Z,0.20
2022-09-01T03:33:59.028Z,0.20
2022-09-01T03:36:27.768Z,0.65
2022-09-01T03:38:55.876Z,0.00
2022-09-01T03:41:25.352Z,0.00
2022-09-01T03:43:58.273Z,0.73
2022-09-01T03:46:26.815Z,0.30
2022-09-01T03:48:55.564Z,0.00
2022-09-01T03:51:23.292Z,0.40
2022-09-01T03:53:54.714Z,0.15
2022-09-01T03:56:24.721Z,0.00
2022-09-01T03:58:52.725Z,0.10
2022-09-01T04:01:23.772Z,0.45
2022-09-01T04:03:52.968Z,0.10
2022-09-01T04:06:21.311Z,0.30
2022-09-01T04:08:48.746Z,0.10
2022-09-01T04:11:18.732Z,0.03
2022-09-01T04:13:47.418Z,0.15
2022-09-01T04:16:39.218Z,0.00
2022-09-01T04:19:16.109Z,0.10
2022-09-01T04:21:54.573Z,0.40
2022-09-01T04:24:24.211Z,0.00
2022-09-01T04:26:52.738Z,0.00
2022-09-01T04:29:27.270Z,0.28
2022-09-01T04:31:55.705Z,0.68
2022-09-01T04:34:24.769Z,0.10
2022-09-01T04:36:57.016Z,0.20
2022-09-01T04:39:24.557Z,0.20
2022-09-01T04:41:52.627Z,0.10
2022-09-01T04:44:20.241Z,0.10
2022-09-01T04:46:48.423Z,0.20
2022-09-01T04:49:19.684Z,0.22
2022-09-01T04:51:53.137Z,0.57
2022-09-01T04:54:21.709Z,0.10
2022-09-01T04:56:51.253Z,0.00
2022-09-01T04:59:20.646Z,0.10
2022-09-01T05:01:50.915Z,0.32
2022-09-01T05:04:23.346Z,0.63
2022-09-01T05:06:54.982Z,0.10
2022-09-01T05:09:22.253Z,0.10
2022-09-01T05:11:50.381Z,0.38
2022-09-01T05:14:20.604Z,0.10
2022-09-01T05:16:48.096Z,0.10
2022-09-01T05:19:17.644Z,0.10
2022-09-01T05:21:46.112Z,0.45
2022-09-01T05:24:21.764Z,0.10
2022-09-01T05:26:50.844Z,1.70
2022-09-01T05:29:19.047Z,0.17
2022-09-01T05:31:49.482Z,0.82
2022-09-01T05:34:26.670Z,0.00
2022-09-01T05:36:56.092Z,0.30
2022-09-01T05:39:23.330Z,0.43
2022-09-01T05:41:50.687Z,0.20
2022-09-01T05:44:18.983Z,0.28
2022-09-01T05:46:47.688Z,0.50
2022-09-01T05:49:17.055Z,1.08
2022-09-01T05:51:46.343Z,0.22
2022-09-01T05:54:19.330Z,0.20
2022-09-01T05:56:46.704Z,0.20
2022-09-01T05:59:23.561Z,0.68
2022-09-01T06:01:51.183Z,0.10
2022-09-01T06:04:18.675Z,0.10
2022-09-01T06:07:05.440Z,0.17
2022-09-01T06:09:35.205Z,1.38
2022-09-01T06:12:03.093Z,0.63
2022-09-01T06:14:30.242Z,0.38
2022-09-01T06:16:58.392Z,0.40
2022-09-01T06:19:25.568Z,0.10
2022-09-01T06:21:54.264Z,0.85
2022-09-01T06:24:21.909Z,0.10
2022-09-01T06:26:49.153Z,0.30
2022-09-01T06:29:16.319Z,0.28
2022-09-01T06:31:52.027Z,1.23
2022-09-01T06:34:19.712Z,0.90
2022-09-01T06:36:49.549Z,0.63
2022-09-01T06:39:20.359Z,1.25
2022-09-01T06:41:52.990Z,1.10
2022-09-01T06:44:23.439Z,1.10
2022-09-01T06:46:52.002Z,1.23
2022-09-01T06:49:23.523Z,0.65
2022-09-01T06:51:52.872Z,0.70
2022-09-01T06:54:21.214Z,0.93
2022-09-01T06:56:51.581Z,0.47
2022-09-01T06:59:20.732Z,0.98
2022-09-01T07:01:49.451Z,1.27
2022-09-01T07:04:21.452Z,0.32
2022-09-01T07:07:00.421Z,1.25
2022-09-01T07:09:38.566Z,0.65
2022-09-01T07:12:27.715Z,1.20
2022-09-01T07:17:56.956Z,1.10
2022-09-01T07:20:25.844Z,1.55
2022-09-01T07:23:10.699Z,1.85
2022-09-01T07:26:01.362Z,0.93
2022-09-01T07:28:39.921Z,1.95
2022-09-01T07:39:50.473Z,2.47
2022-09-01T07:45:27.690Z,1.65
2022-09-01T07:47:55.950Z,3.65
2022-09-01T07:51:34.393Z,2.33
2022-09-01T07:53:12.872Z,2.10
2022-09-01T07:55:44.344Z,1.90
2022-09-01T07:58:12.170Z,2.00
2022-09-01T08:00:40.185Z,2.65
2022-09-01T08:03:07.505Z,1.85
2022-09-01T08:05:34.947Z,1.63
2022-09-01T08:08:02.591Z,3.22
2022-09-01T08:10:29.948Z,1.45
2022-09-01T08:12:57.571Z,2.50
2022-09-01T08:16:06.437Z,2.25
2022-09-01T08:18:14.871Z,2.70
2022-09-01T08:20:47.670Z,1.85
2022-09-01T08:23:18.121Z,2.85
2022-09-01T08:25:45.639Z,4.20
2022-09-01T08:28:13.491Z,1.30
2022-09-01T08:30:41.809Z,2.10
2022-09-01T08:33:19.604Z,0.93
2022-09-01T08:35:49.497Z,1.17
2022-09-01T08:38:16.749Z,2.03
2022-09-01T08:40:44.911Z,1.50
2022-09-01T08:43:21.319Z,4.13
2022-09-01T08:45:51.336Z,1.48
2022-09-01T08:51:17.158Z,1.60
2022-09-01T08:53:50.700Z,2.03
2022-09-01T08:56:20.091Z,2.65
2022-09-01T08:58:48.262Z,3.50
2022-09-01T09:01:21.898Z,2.58
2022-09-01T09:03:55.119Z,2.80
2022-09-01T09:06:25.658Z,2.03
2022-09-01T09:09:03.049Z,2.80
2022-09-01T09:11:36.242Z,3.05
2022-09-01T09:14:11.753Z,3.03
2022-09-01T09:16:54.044Z,3.85
2022-09-01T09:19:29.638Z,3.03
2022-09-01T09:21:58.888Z,2.40
2022-09-01T09:24:26.041Z,2.58
2022-09-01T09:26:55.587Z,3.70
2022-09-01T09:29:23.371Z,2.90
2022-09-01T09:32:01.979Z,3.05
2022-09-01T09:34:35.167Z,1.20
2022-09-01T09:37:23.189Z,3.17
2022-09-01T09:40:10.367Z,2.40
2022-09-01T09:42:39.918Z,0.95
2022-09-01T09:45:27.756Z,2.72
2022-09-01T09:47:55.792Z,1.05
2022-09-01T09:50:23.047Z,2.13
2022-09-01T09:52:51.127Z,1.95
2022-09-01T09:55:26.061Z,2.45
2022-09-01T09:57:55.108Z,2.75
2022-09-01T10:00:25.589Z,1.52
2022-09-01T10:02:58.388Z,2.67
2022-09-01T10:05:45.455Z,1.60
2022-09-01T10:08:37.662Z,1.27
2022-09-01T10:11:08.407Z,0.43
2022-09-01T10:13:36.910Z,0.32
2022-09-01T10:16:09.089Z,0.73
2022-09-01T10:18:41.382Z,1.20
2022-09-01T10:21:22.870Z,1.45
2022-09-01T10:23:50.364Z,0.15
2022-09-01T10:26:20.080Z,0.65
2022-09-01T10:28:53.385Z,0.10
2022-09-01T10:31:21.191Z,0.15
2022-09-01T10:33:49.651Z,0.20
2022-09-01T10:36:17.194Z,0.52
2022-09-01T10:38:52.658Z,0.95
2022-09-01T10:42:00.734Z,1.25
2022-09-01T10:44:31.838Z,0.52
2022-09-01T10:47:01.998Z,0.20
2022-09-01T10:49:29.803Z,0.45
2022-09-01T10:52:03.201Z,0.00
2022-09-01T10:54:50.905Z,1.00
2022-09-01T10:57:26.795Z,1.10
2022-09-01T10:59:58.597Z,0.68
2022-09-01T11:02:27.970Z,0.00
2022-09-01T11:04:56.713Z,0.30
2022-09-01T11:07:44.524Z,0.30
2022-09-01T11:10:31.623Z,1.83
2022-09-01T11:13:11.074Z,0.20
2022-09-01T11:15:42.833Z,0.65
2022-09-01T11:18:27.210Z,0.17
2022-09-01T11:20:56.270Z,1.77
2022-09-01T11:23:31.048Z,0.08
2022-09-01T11:28:45.911Z,0.15
2022-09-01T11:31:33.045Z,0.25
2022-09-01T11:34:00.481Z,0.20
2022-09-01T11:36:30.730Z,0.82
2022-09-01T11:38:57.910Z,0.52
2022-09-01T11:41:27.169Z,0.70
2022-09-01T11:43:58.209Z,0.20
2022-09-01T11:46:32.824Z,0.35
2022-09-01T11:49:04.065Z,0.35
2022-09-01T11:51:39.109Z,0.32
2022-09-01T11:54:06.450Z,0.57
2022-09-01T11:56:33.735Z,0.35
2022-09-01T11:59:01.312Z,0.65
2022-09-01T12:01:31.308Z,0.20
2022-09-01T12:03:58.967Z,0.45
2022-09-01T12:06:27.553Z,0.60
2022-09-01T12:08:58.729Z,0.15
2022-09-01T12:11:31.181Z,0.88
2022-09-01T12:13:58.621Z,0.30
2022-09-01T12:16:26.675Z,0.98
2022-09-01T12:18:54.982Z,0.25
2022-09-01T12:21:25.199Z,0.40
2022-09-01T12:23:52.884Z,0.10
2022-09-01T12:26:23.168Z,0.32
2022-09-01T12:28:51.061Z,0.00
2022-09-01T12:31:20.638Z,0.22
2022-09-01T12:33:48.579Z,0.73
2022-09-01T12:36:21.834Z,0.20
2022-09-01T12:38:49.691Z,0.85
2022-09-01T12:41:24.110Z,0.82
2022-09-01T12:43:54.809Z,0.90
2022-09-01T12:46:43.079Z,0.10
2022-09-01T12:49:28.811Z,0.57
2022-09-01T12:52:14.376Z,0.52
2022-09-01T12:54:42.215Z,0.75
2022-09-01T12:57:09.917Z,0.10
2022-09-01T12:59:37.680Z,0.50
2022-09-01T13:02:28.040Z,0.35
2022-09-01T13:04:55.329Z,0.85
2022-09-01T13:07:22.580Z,1.13
2022-09-01T13:09:50.012Z,0.30
2022-09-01T13:12:18.450Z,0.10
2022-09-01T13:14:45.796Z,0.57
2022-09-01T13:17:14.313Z,0.75
2022-09-01T13:19:42.614Z,0.10
2022-09-01T13:22:10.372Z,0.90
2022-09-01T13:24:39.639Z,0.47
2022-09-01T13:27:23.608Z,0.25
2022-09-01T13:29:51.477Z,0.10
2022-09-01T13:32:20.844Z,0.32
2022-09-01T13:34:50.661Z,0.90
2022-09-01T13:37:19.263Z,0.90
2022-09-01T13:39:47.224Z,0.20
2022-09-01T13:42:15.872Z,0.57
2022-09-01T13:44:44.201Z,0.32
2022-09-01T13:50:09.282Z,0.63
2022-09-01T13:52:39.135Z,0.10
2022-09-01T13:55:07.549Z,0.30
2022-09-01T13:57:35.988Z,0.10
2022-09-01T14:00:05.429Z,0.40
2022-09-01T14:02:33.195Z,0.55
2022-09-01T14:05:00.368Z,0.32
2022-09-01T14:07:27.974Z,0.10
2022-09-01T14:09:55.609Z,0.57
2022-09-01T14:12:23.017Z,0.70
2022-09-01T14:17:38.949Z,0.32
2022-09-01T14:20:07.888Z,0.10
2022-09-01T14:22:38.543Z,0.35
2022-09-01T14:25:06.539Z,0.47
2022-09-01T14:27:33.781Z,0.25
2022-09-01T14:30:01.248Z,0.55
2022-09-01T14:32:29.820Z,0.80
2022-09-01T14:34:57.704Z,0.73
2022-09-01T14:37:25.440Z,0.52
2022-09-01T14:39:56.588Z,1.70
2022-09-01T14:42:25.774Z,0.43
2022-09-01T14:44:53.434Z,0.13
2022-09-01T14:47:21.401Z,0.80
2022-09-01T14:49:48.619Z,0.25
2022-09-01T14:52:18.047Z,0.63
2022-09-01T14:54:45.675Z,0.43
2022-09-01T14:57:37.587Z,1.27
2022-09-01T15:00:01.731Z,2.10
2022-09-01T15:02:29.241Z,0.28
2022-09-01T15:04:57.285Z,0.20
2022-09-01T15:07:24.986Z,0.35
2022-09-01T15:09:52.811Z,0.47
2022-09-01T15:12:20.143Z,0.13
2022-09-01T15:14:47.963Z,0.45
2022-09-01T15:17:15.141Z,0.30
2022-09-01T15:19:42.461Z,0.10
2022-09-01T15:22:13.175Z,0.00
2022-09-01T15:24:40.789Z,0.55
2022-09-01T15:27:08.113Z,0.20
2022-09-01T15:29:45.097Z,0.35
2022-09-01T15:32:27.370Z,0.15
2022-09-01T15:34:55.613Z,0.20
2022-09-01T15:37:22.802Z,0.10
2022-09-01T15:39:50.191Z,0.17
2022-09-01T15:42:18.540Z,0.20
2022-09-01T15:44:47.365Z,0.20
2022-09-01T15:47:14.761Z,0.10
2022-09-01T15:49:43.230Z,0.10
2022-09-01T15:52:11.043Z,0.00
2022-09-01T15:54:39.420Z,0.08
2022-09-01T15:57:07.307Z,0.10
2022-09-01T15:59:40.162Z,0.00
2022-09-01T16:02:08.138Z,0.10
2022-09-01T16:04:35.397Z,0.10
2022-09-01T16:07:02.697Z,0.15
2022-09-01T16:09:29.959Z,0.20
2022-09-01T16:11:57.467Z,0.20
2022-09-01T16:14:24.741Z,0.00
2022-09-01T16:16:51.941Z,0.10
2022-09-01T16:19:38.926Z,0.08
2022-09-01T16:22:06.073Z,0.00
2022-09-01T16:24:38.977Z,1.35
2022-09-01T16:27:08.170Z,0.08
2022-09-01T16:30:01.638Z,0.00
2022-09-01T16:32:29.433Z,0.00
2022-09-01T16:34:58.326Z,0.00
2022-09-01T16:37:28.987Z,0.13
2022-09-01T16:39:57.153Z,0.03
2022-09-01T16:42:37.804Z,0.00
2022-09-01T16:45:14.024Z,0.00
2022-09-01T16:47:41.495Z,0.00
2022-09-01T16:50:08.729Z,0.00
2022-09-01T16:52:43.268Z,0.00
2022-09-01T16:55:22.562Z,0.13
2022-09-01T16:58:19.084Z,0.00
2022-09-01T17:01:02.194Z,0.10
2022-09-01T17:03:42.881Z,0.10
2022-09-01T17:06:23.871Z,0.35
2022-09-01T17:08:52.769Z,0.55
2022-09-01T17:11:26.094Z,0.30
2022-09-01T17:13:54.564Z,0.43
2022-09-01T17:16:22.252Z,0.20
2022-09-01T17:19:05.012Z,0.43
2022-09-01T17:21:32.387Z,0.47
2022-09-01T17:24:05.100Z,0.45
2022-09-01T17:26:33.150Z,0.50
2022-09-01T17:29:10.438Z,0.10
2022-09-01T17:31:37.690Z,0.20
2022-09-01T17:34:08.104Z,0.52
2022-09-01T17:36:54.094Z,0.20
2022-09-01T17:39:40.069Z,0.20
2022-09-01T17:42:13.391Z,0.40
2022-09-01T17:44:56.704Z,0.10
2022-09-01T17:47:43.667Z,0.20
2022-09-01T17:50:22.846Z,0.10
2022-09-01T17:52:59.258Z,0.10
2022-09-01T17:55:47.622Z,1.33
2022-09-01T17:58:38.303Z,0.75
2022-09-01T18:01:09.928Z,1.00
2022-09-01T18:03:58.164Z,0.30
2022-09-01T18:06:41.256Z,0.08
2022-09-01T18:09:09.559Z,0.30
2022-09-01T18:11:55.766Z,1.27
2022-09-01T18:14:28.080Z,0.30
2022-09-01T18:17:01.500Z,0.00
2022-09-01T18:19:36.625Z,0.28
2022-09-01T18:22:15.598Z,0.30
2022-09-01T18:24:46.843Z,0.13
2022-09-01T18:27:14.162Z,0.75
2022-09-01T18:29:41.364Z,0.00
2022-09-01T18:32:09.805Z,0.35
2022-09-01T18:34:42.412Z,0.52
2022-09-01T18:37:10.675Z,0.10
2022-09-01T18:39:44.019Z,0.38
2022-09-01T18:42:24.299Z,0.13
2022-09-01T18:45:30.261Z,0.45
2022-09-01T18:47:57.747Z,0.38
2022-09-01T18:50:30.093Z,0.13
2022-09-01T18:53:08.655Z,0.25
2022-09-01T18:55:41.756Z,0.10
2022-09-01T18:58:15.129Z,0.10
2022-09-01T19:01:02.563Z,0.00
2022-09-01T19:03:48.651Z,0.45
2022-09-01T19:06:24.966Z,0.05
2022-09-01T19:08:55.562Z,0.40
2022-09-01T19:11:41.813Z,0.08
2022-09-01T19:17:02.815Z,0.10
2022-09-01T19:19:39.339Z,0.10
2022-09-01T19:22:06.896Z,0.00
2022-09-01T19:24:41.362Z,0.40
2022-09-01T19:27:11.987Z,0.10
2022-09-01T19:29:52.679Z,0.10
2022-09-01T19:32:20.884Z,0.10
2022-09-01T19:35:07.135Z,0.28
2022-09-01T19:37:34.383Z,0.00
2022-09-01T19:40:02.223Z,0.63
2022-09-01T19:42:41.603Z,0.35
2022-09-01T19:45:11.793Z,0.03
2022-09-01T19:47:58.215Z,0.10
2022-09-01T19:50:31.242Z,0.00
2022-09-01T19:53:03.398Z,0.00
2022-09-01T19:55:33.430Z,0.22
2022-09-01T19:58:14.973Z,0.22
2022-09-01T20:00:53.383Z,0.32
2022-09-01T20:03:23.603Z,0.20
2022-09-01T20:05:53.941Z,0.55
2022-09-01T20:08:21.247Z,0.03
2022-09-01T20:10:56.106Z,0.00
2022-09-01T20:13:30.235Z,0.40
2022-09-01T20:16:09.727Z,0.30
2022-09-01T20:18:43.305Z,0.65
2022-09-01T20:21:18.889Z,0.10
2022-09-01T20:23:48.321Z,0.30
2022-09-01T20:26:15.790Z,0.00
2022-09-01T20:28:49.387Z,0.20
2022-09-01T20:31:23.077Z,0.05
2022-09-01T20:33:53.427Z,0.03
2022-09-01T20:36:40.336Z,0.25
2022-09-01T20:39:33.801Z,0.00
2022-09-01T20:42:22.129Z,0.00
2022-09-01T20:44:57.719Z,0.08
2022-09-01T20:47:27.427Z,0.80
2022-09-01T20:49:54.793Z,0.10
2022-09-01T20:52:37.812Z,0.20
2022-09-01T20:55:20.299Z,0.40
2022-09-01T20:57:50.562Z,0.40
2022-09-01T21:00:26.101Z,0.20
2022-09-01T21:03:12.370Z,0.03
2022-09-01T21:05:46.845Z,0.00
2022-09-01T21:08:14.799Z,0.17
2022-09-01T21:10:45.830Z,0.98
2022-09-01T21:13:24.149Z,0.00
2022-09-01T21:15:57.594Z,0.10
2022-09-01T21:18:39.280Z,0.20
2022-09-01T21:21:06.528Z,1.38
2022-09-01T21:23:33.840Z,0.00
2022-09-01T21:26:01.638Z,0.08
2022-09-01T21:28:29.365Z,0.13
2022-09-01T21:30:57.829Z,1.27
2022-09-01T21:33:26.597Z,0.00
2022-09-01T21:35:53.881Z,0.68
2022-09-01T21:38:21.230Z,0.13
2022-09-01T21:40:49.275Z,0.40
2022-09-01T21:43:37.141Z,0.05
2022-09-01T21:46:04.700Z,0.00
2022-09-01T21:48:32.062Z,0.00
2022-09-01T21:50:59.396Z,0.00
2022-09-01T21:53:26.822Z,0.00
2022-09-01T21:55:54.016Z,0.65
2022-09-01T21:58:21.278Z,0.00
2022-09-01T22:00:48.859Z,0.08
2022-09-01T22:03:16.296Z,0.03
2022-09-01T22:05:44.776Z,0.10
2022-09-01T22:08:13.285Z,0.00
2022-09-01T22:10:49.625Z,0.20
2022-09-01T22:13:17.467Z,0.00
2022-09-01T22:15:45.961Z,0.30
2022-09-01T22:18:13.625Z,0.10
2022-09-01T22:20:41.196Z,0.00
2022-09-01T22:23:09.060Z,0.00
2022-09-01T22:25:40.633Z,0.28
2022-09-01T22:28:08.353Z,0.25
2022-09-01T22:30:36.060Z,0.03
2022-09-01T22:33:03.973Z,0.10
2022-09-01T22:35:31.579Z,0.03
2022-09-01T22:37:58.799Z,0.00
2022-09-01T22:40:26.092Z,0.10
2022-09-01T22:42:53.931Z,0.10
2022-09-01T22:45:21.195Z,0.10
2022-09-01T22:47:48.553Z,0.03
2022-09-01T22:50:15.986Z,0.10
2022-09-01T22:52:43.711Z,0.43
2022-09-01T22:55:11.139Z,0.03
2022-09-01T22:57:38.801Z,0.10
2022-09-01T23:00:08.837Z,0.00
2022-09-01T23:02:36.241Z,0.10
2022-09-01T23:05:03.829Z,0.10
2022-09-01T23:07:34.956Z,0.30
2022-09-01T23:10:02.427Z,0.00
2022-09-01T23:12:29.686Z,0.20
2022-09-01T23:14:56.888Z,0.15
2022-09-01T23:17:24.270Z,0.10
2022-09-01T23:19:52.014Z,0.30
2022-09-01T23:22:19.301Z,0.00
2022-09-01T23:24:46.662Z,0.00
2022-09-01T23:27:14.008Z,0.90
2022-09-01T23:29:41.421Z,1.05
2022-09-01T23:32:08.801Z,0.47
2022-09-01T23:34:36.042Z,0.47
2022-09-01T23:37:03.345Z,0.60
2022-09-01T23:39:30.797Z,0.10
2022-09-01T23:41:58.258Z,0.22
2022-09-01T23:44:25.715Z,0.50
2022-09-01T23:46:52.977Z,0.63
2022-09-01T23:49:20.244Z,0.10
2022-09-01T23:51:48.288Z,0.20
2022-09-01T23:54:16.054Z,0.70
2022-09-01T23:56:43.415Z,0.25
2022-09-01T23:59:10.749Z,1.95
